Time;durP1;ratioP1;P1;durP2;ratioP2;P2;SDS_P1;SDS_P2;PMS_P1;PMS_P2;Temp;Humidity;BMP_temperature;BMP_pressure;BME280_temperature;BME280_humidity;BME280_pressure;Samples;Min_cycle;Max_cycle;Signal;HPM_P1;HPM_P2
2024/01/17 00:00:00;;;;;;;0.40;0.40;;;-0.70;99.90;;;;;;4406315;32;20168;-64
2024/01/17 00:02:26;;;;;;;0.60;0.60;;;-0.70;99.90;;;;;;4406194;32;20497;-63
2024/01/17 00:04:54;;;;;;;0.77;0.77;;;-0.70;99.90;;;;;;4408333;32;20405;-63
2024/01/17 00:07:20;;;;;;;0.40;0.40;;;-0.70;99.90;;;;;;4405535;32;20062;-63
2024/01/17 00:09:46;;;;;;;0.40;0.40;;;-0.70;99.90;;;;;;4405604;32;20502;-64
2024/01/17 00:12:12;;;;;;;0.95;0.95;;;-0.60;99.90;;;;;;4407298;32;20316;-63
2024/01/17 00:14:37;;;;;;;0.40;0.40;;;-0.60;99.90;;;;;;4407855;32;20387;-63
2024/01/17 00:17:03;;;;;;;0.40;0.40;;;-0.70;99.90;;;;;;4408292;32;20078;-64
2024/01/17 00:19:30;;;;;;;0.62;0.62;;;-0.70;99.90;;;;;;4406969;32;20549;-63
2024/01/17 00:21:56;;;;;;;1.17;1.02;;;-0.70;99.90;;;;;;4407016;32;20068;-63
2024/01/17 00:24:22;;;;;;;0.43;0.43;;;-0.80;99.90;;;;;;4407637;32;20442;-63
2024/01/17 00:26:47;;;;;;;0.43;0.43;;;-0.80;99.90;;;;;;4392391;32;20074;-68
2024/01/17 00:29:13;;;;;;;0.50;0.50;;;-0.80;99.90;;;;;;4405427;32;20076;-67
2024/01/17 00:31:38;;;;;;;0.50;0.50;;;-0.70;99.90;;;;;;4404055;32;20077;-69
2024/01/17 00:34:10;;;;;;;7.72;2.20;;;-0.70;99.90;;;;;;4406090;32;20514;-65
2024/01/17 00:36:35;;;;;;;0.47;0.47;;;-0.80;99.90;;;;;;4404378;32;20086;-67
2024/01/17 00:39:01;;;;;;;0.57;0.57;;;-0.80;99.90;;;;;;4407278;32;20521;-68
2024/01/17 00:41:26;;;;;;;0.73;0.73;;;-0.80;99.90;;;;;;4405217;32;20112;-68
2024/01/17 00:43:52;;;;;;;0.40;0.40;;;-0.90;99.90;;;;;;4407625;32;20079;-66
2024/01/17 00:46:17;;;;;;;0.60;0.60;;;-1.00;99.90;;;;;;4407525;32;20510;-67
2024/01/17 00:48:43;;;;;;;0.50;0.50;;;-1.10;99.90;;;;;;4408272;32;20073;-68
2024/01/17 00:51:08;;;;;;;0.50;0.50;;;-1.10;99.90;;;;;;4409845;32;20068;-65
2024/01/17 00:53:34;;;;;;;0.40;0.40;;;-1.00;99.90;;;;;;4407430;32;20127;-68
2024/01/17 00:55:59;;;;;;;0.40;0.40;;;-1.10;99.90;;;;;;4405098;32;20354;-67
2024/01/17 00:58:25;;;;;;;0.40;0.40;;;-1.20;99.90;;;;;;4406356;32;20117;-68
2024/01/17 01:00:50;;;;;;;0.40;0.40;;;-1.10;99.90;;;;;;4406982;32;20100;-64
2024/01/17 01:03:16;;;;;;;0.50;0.50;;;-1.20;99.90;;;;;;4408368;32;20086;-68
2024/01/17 01:05:41;;;;;;;0.50;0.50;;;-1.20;99.90;;;;;;4406507;32;20081;-68
2024/01/17 01:08:07;;;;;;;0.50;0.50;;;-1.20;99.90;;;;;;4404667;32;21213;-66
2024/01/17 01:10:32;;;;;;;0.40;0.40;;;-1.20;99.90;;;;;;4405245;32;21191;-66
2024/01/17 01:12:58;;;;;;;0.50;0.50;;;-1.30;99.90;;;;;;4406514;32;20081;-68
2024/01/17 01:15:24;;;;;;;0.75;0.75;;;-1.30;99.90;;;;;;4406571;32;20066;-68
2024/01/17 01:17:50;;;;;;;0.50;0.50;;;-1.30;99.90;;;;;;4410386;32;20089;-68
2024/01/17 01:20:15;;;;;;;0.40;0.40;;;-1.30;99.90;;;;;;4406210;32;20077;-66
2024/01/17 01:22:41;;;;;;;0.40;0.40;;;-1.20;99.90;;;;;;4407008;32;20078;-68
2024/01/17 01:25:07;;;;;;;0.60;0.60;;;-1.30;99.90;;;;;;4406048;32;20132;-68
2024/01/17 01:27:32;;;;;;;0.65;0.65;;;-1.30;99.90;;;;;;4405224;32;20079;-68
2024/01/17 01:29:58;;;;;;;2.85;1.50;;;-1.30;99.90;;;;;;4406802;32;20477;-68
2024/01/17 01:32:24;;;;;;;1.27;1.08;;;-1.30;99.90;;;;;;4405833;32;20159;-68
2024/01/17 01:34:49;;;;;;;0.50;0.50;;;-1.30;99.90;;;;;;4407906;32;20853;-70
2024/01/17 01:37:15;;;;;;;0.50;0.50;;;-1.40;99.90;;;;;;4405807;32;20147;-68
2024/01/17 01:39:40;;;;;;;0.43;0.43;;;-1.40;99.90;;;;;;4409907;32;20319;-68
2024/01/17 01:42:06;;;;;;;0.40;0.40;;;-1.40;99.90;;;;;;4408807;32;20152;-66
2024/01/17 01:44:31;;;;;;;0.50;0.50;;;-1.50;99.90;;;;;;4409478;32;20077;-68
2024/01/17 01:46:57;;;;;;;0.60;0.60;;;-1.60;99.90;;;;;;4408340;32;20077;-68
2024/01/17 01:49:24;;;;;;;0.40;0.40;;;-1.60;99.90;;;;;;4410364;32;20093;-68
2024/01/17 01:51:52;;;;;;;0.65;0.62;;;-1.60;99.90;;;;;;4409263;32;20074;-68
2024/01/17 01:54:22;;;;;;;5.00;2.47;;;-1.60;99.90;;;;;;4409207;32;20121;-68
2024/01/17 01:56:48;;;;;;;0.60;0.60;;;-1.60;99.90;;;;;;4408335;32;20073;-68
2024/01/17 01:59:16;;;;;;;0.52;0.52;;;-1.60;99.90;;;;;;4408512;32;20141;-66
2024/01/17 02:04:08;;;;;;;1.15;1.05;;;-1.60;99.90;;;;;;4411470;32;20125;-68
2024/01/17 02:06:35;;;;;;;0.77;0.77;;;-1.60;99.90;;;;;;4409744;32;20058;-67
2024/01/17 02:09:02;;;;;;;0.52;0.52;;;-1.60;99.90;;;;;;4408271;32;20415;-67
2024/01/17 02:11:29;;;;;;;0.60;0.60;;;-1.60;99.90;;;;;;4406134;32;20081;-68
2024/01/17 02:13:55;;;;;;;0.55;0.55;;;-1.60;99.90;;;;;;4410739;32;20065;-68
2024/01/17 02:16:23;;;;;;;0.93;0.85;;;-1.60;99.90;;;;;;4410787;32;20172;-68
2024/01/17 02:18:49;;;;;;;0.43;0.43;;;-1.70;99.90;;;;;;4410977;32;20058;-68
2024/01/17 02:21:14;;;;;;;0.40;0.40;;;-1.60;99.90;;;;;;4410207;32;20073;-67
2024/01/17 02:23:40;;;;;;;0.40;0.40;;;-1.70;99.90;;;;;;4409411;32;20053;-68
2024/01/17 02:26:05;;;;;;;12.55;3.85;;;-1.70;99.90;;;;;;4407300;32;20073;-67
2024/01/17 02:28:31;;;;;;;0.70;0.70;;;-1.70;99.90;;;;;;4406522;32;20087;-66
2024/01/17 02:30:58;;;;;;;0.40;0.40;;;-1.60;99.90;;;;;;4407182;32;20090;-68
2024/01/17 02:33:23;;;;;;;0.60;0.60;;;-1.60;99.90;;;;;;4407473;32;20082;-67
2024/01/17 02:35:49;;;;;;;0.40;0.40;;;-1.60;99.90;;;;;;4405843;32;20070;-68
2024/01/17 02:38:14;;;;;;;0.68;0.68;;;-1.70;99.90;;;;;;4406924;32;20090;-67
2024/01/17 02:40:40;;;;;;;0.40;0.40;;;-1.70;99.90;;;;;;4405130;32;20094;-65
2024/01/17 02:43:06;;;;;;;1.05;0.93;;;-1.70;99.90;;;;;;4404851;32;20081;-66
2024/01/17 02:45:32;;;;;;;0.82;0.82;;;-1.70;99.90;;;;;;4408658;32;20074;-67
2024/01/17 02:47:58;;;;;;;0.50;0.50;;;-1.70;99.90;;;;;;4409509;32;20087;-67
2024/01/17 02:50:24;;;;;;;0.47;0.47;;;-1.70;99.90;;;;;;4409039;32;20060;-67
2024/01/17 02:52:50;;;;;;;0.50;0.50;;;-1.80;99.90;;;;;;4395129;32;20868;-67
2024/01/17 02:55:16;;;;;;;0.40;0.40;;;-1.80;99.90;;;;;;4407613;32;20057;-67
2024/01/17 02:57:42;;;;;;;0.40;0.40;;;-1.90;99.90;;;;;;4410301;32;20069;-67
2024/01/17 03:02:36;;;;;;;0.40;0.40;;;-1.90;99.90;;;;;;4409740;32;20144;-67
2024/01/17 03:05:03;;;;;;;0.40;0.40;;;-1.90;99.90;;;;;;4410579;32;20094;-67
2024/01/17 03:07:30;;;;;;;0.37;0.37;;;-2.00;99.90;;;;;;4407936;32;20074;-67
2024/01/17 03:09:56;;;;;;;0.52;0.52;;;-2.00;99.90;;;;;;4410316;32;20069;-65
2024/01/17 03:12:21;;;;;;;0.40;0.40;;;-2.20;99.90;;;;;;4410032;32;20082;-67
2024/01/17 03:14:47;;;;;;;0.50;0.50;;;-2.30;99.90;;;;;;4410528;32;20132;-67
2024/01/17 03:17:16;;;;;;;1.45;1.33;;;-2.20;99.90;;;;;;4410132;32;20091;-67
2024/01/17 03:19:44;;;;;;;0.50;0.50;;;-2.20;99.90;;;;;;4399635;32;20085;-67
2024/01/17 03:22:13;;;;;;;0.55;0.55;;;-2.20;99.90;;;;;;4408956;32;20524;-67
2024/01/17 03:24:39;;;;;;;0.60;0.60;;;-2.20;99.90;;;;;;4408913;32;20078;-67
2024/01/17 03:27:05;;;;;;;0.70;0.70;;;-2.30;99.90;;;;;;4398937;32;21147;-67
2024/01/17 03:29:30;;;;;;;0.55;0.55;;;-2.30;99.90;;;;;;4407432;32;20069;-67
2024/01/17 03:31:57;;;;;;;0.50;0.50;;;-2.40;99.90;;;;;;4409452;32;20090;-67
2024/01/17 03:34:22;;;;;;;0.93;0.93;;;-2.30;99.90;;;;;;4395088;32;20125;-67
2024/01/17 03:36:48;;;;;;;0.95;0.95;;;-2.30;99.90;;;;;;4410358;32;20142;-66
2024/01/17 03:39:14;;;;;;;0.50;0.50;;;-2.40;99.90;;;;;;4409380;32;20533;-66
2024/01/17 03:41:39;;;;;;;0.62;0.62;;;-2.50;99.90;;;;;;4408973;32;20369;-67
2024/01/17 03:44:05;;;;;;;0.40;0.40;;;-2.50;99.90;;;;;;4410617;32;20082;-67
2024/01/17 03:46:30;;;;;;;0.50;0.50;;;-2.60;99.90;;;;;;4409797;32;20560;-67
2024/01/17 03:48:56;;;;;;;1.45;1.37;;;-2.50;99.90;;;;;;4406614;32;20481;-66
2024/01/17 03:51:21;;;;;;;1.92;1.80;;;-2.60;99.90;;;;;;4410743;32;20069;-66
2024/01/17 03:53:47;;;;;;;0.50;0.50;;;-2.60;99.90;;;;;;4409261;32;20078;-67
2024/01/17 03:56:14;;;;;;;0.73;0.73;;;-2.60;99.90;;;;;;4407543;32;20058;-63
2024/01/17 03:58:40;;;;;;;0.60;0.60;;;-2.60;99.90;;;;;;4405372;32;20072;-63
2024/01/17 04:01:08;;;;;;;0.40;0.40;;;-2.60;99.90;;;;;;4406830;32;20088;-64
2024/01/17 04:03:33;;;;;;;1.50;1.40;;;-2.60;99.90;;;;;;4400186;32;20104;-62
2024/01/17 04:05:59;;;;;;;0.68;0.68;;;-2.70;99.90;;;;;;4409756;32;20066;-63
2024/01/17 04:08:24;;;;;;;0.40;0.40;;;-2.70;99.90;;;;;;4406210;32;20065;-63
2024/01/17 04:10:50;;;;;;;1.42;1.27;;;-2.70;99.90;;;;;;4406332;32;20189;-63
2024/01/17 04:13:16;;;;;;;0.47;0.47;;;-2.80;99.90;;;;;;4406609;32;20178;-63
2024/01/17 04:15:42;;;;;;;0.57;0.57;;;-2.80;99.90;;;;;;4408118;32;20924;-64
2024/01/17 04:18:08;;;;;;;0.40;0.40;;;-2.80;99.90;;;;;;4409735;32;20069;-64
2024/01/17 04:20:33;;;;;;;0.50;0.50;;;-2.90;99.90;;;;;;4406018;32;20549;-63
2024/01/17 04:22:58;;;;;;;0.60;0.60;;;-2.90;99.90;;;;;;4407669;32;20082;-64
2024/01/17 04:25:24;;;;;;;0.50;0.50;;;-2.90;99.90;;;;;;4408708;32;20120;-64
2024/01/17 04:27:49;;;;;;;0.68;0.68;;;-2.90;99.90;;;;;;4406028;32;20069;-64
2024/01/17 04:30:15;;;;;;;1.02;0.70;;;-2.90;99.90;;;;;;4408395;32;20077;-64
2024/01/17 04:32:41;;;;;;;5.60;1.45;;;-2.90;99.90;;;;;;4408127;32;20112;-62
2024/01/17 04:35:07;;;;;;;2.65;1.33;;;-2.90;99.90;;;;;;4407662;32;20534;-63
2024/01/17 04:37:32;;;;;;;0.40;0.40;;;-3.00;99.90;;;;;;4406403;32;20074;-63
2024/01/17 04:39:58;;;;;;;0.90;0.90;;;-3.10;99.90;;;;;;4406249;32;20643;-62
2024/01/17 04:42:23;;;;;;;0.43;0.43;;;-3.10;99.90;;;;;;4407107;32;20077;-62
2024/01/17 04:44:49;;;;;;;0.50;0.50;;;-3.00;99.90;;;;;;4407209;32;20462;-62
2024/01/17 04:47:16;;;;;;;1.17;1.10;;;-3.10;99.90;;;;;;4407304;32;20066;-62
2024/01/17 04:49:42;;;;;;;0.45;0.45;;;-3.00;99.90;;;;;;4407476;32;20082;-63
2024/01/17 04:52:09;;;;;;;0.50;0.50;;;-3.10;99.90;;;;;;4406064;32;20074;-62
2024/01/17 04:54:35;;;;;;;0.55;0.55;;;-3.20;99.90;;;;;;4405078;32;20086;-62
2024/01/17 04:57:00;;;;;;;0.50;0.50;;;-3.20;99.90;;;;;;4406008;32;20382;-63
2024/01/17 04:59:26;;;;;;;0.50;0.50;;;-3.20;99.90;;;;;;4407819;32;20077;-62
2024/01/17 05:01:52;;;;;;;0.50;0.50;;;-3.20;99.90;;;;;;4405481;32;20070;-62
2024/01/17 05:04:17;;;;;;;0.52;0.52;;;-3.30;99.90;;;;;;4407642;32;20066;-63
2024/01/17 05:06:43;;;;;;;0.43;0.43;;;-3.30;99.90;;;;;;4408076;32;20486;-63
2024/01/17 05:09:10;;;;;;;0.40;0.40;;;-3.30;99.90;;;;;;4405728;32;20077;-64
2024/01/17 05:11:37;;;;;;;0.50;0.50;;;-3.30;99.90;;;;;;4406882;32;20065;-63
2024/01/17 05:14:02;;;;;;;0.50;0.50;;;-3.40;99.90;;;;;;4407382;32;20087;-61
2024/01/17 05:16:28;;;;;;;0.50;0.50;;;-3.40;99.90;;;;;;4408288;32;20127;-62
2024/01/17 05:18:53;;;;;;;0.50;0.50;;;-3.40;99.90;;;;;;4409121;32;20188;-62
2024/01/17 05:21:19;;;;;;;0.40;0.40;;;-3.50;99.90;;;;;;4403356;32;20082;-64
2024/01/17 05:23:44;;;;;;;0.60;0.60;;;-3.40;99.90;;;;;;4406661;32;20521;-64
2024/01/17 05:26:10;;;;;;;0.70;0.70;;;-3.40;99.90;;;;;;4409535;32;20469;-63
2024/01/17 05:28:35;;;;;;;0.40;0.40;;;-3.50;99.90;;;;;;4410723;32;20132;-64
2024/01/17 05:31:01;;;;;;;0.70;0.70;;;-3.50;99.90;;;;;;4411125;32;20078;-64
2024/01/17 05:33:26;;;;;;;0.55;0.55;;;-3.50;99.90;;;;;;4408020;32;20212;-62
2024/01/17 05:35:52;;;;;;;0.43;0.43;;;-3.50;99.90;;;;;;4410328;32;20061;-63
2024/01/17 05:38:17;;;;;;;0.50;0.50;;;-3.60;99.90;;;;;;4395709;32;20104;-63
2024/01/17 05:40:43;;;;;;;0.40;0.40;;;-3.60;99.90;;;;;;4405211;32;20579;-63
2024/01/17 05:43:10;;;;;;;0.50;0.50;;;-3.50;99.90;;;;;;4404355;32;20089;-62
2024/01/17 05:45:35;;;;;;;0.50;0.50;;;-3.50;99.90;;;;;;4409091;32;20077;-65
2024/01/17 05:48:01;;;;;;;1.65;1.12;;;-3.40;99.90;;;;;;4409322;32;20124;-65
2024/01/17 05:50:26;;;;;;;0.73;0.73;;;-3.40;99.90;;;;;;4407538;32;20074;-66
2024/01/17 05:52:52;;;;;;;0.47;0.47;;;-3.40;99.90;;;;;;4408276;32;20154;-63
2024/01/17 05:55:19;;;;;;;0.43;0.43;;;-3.50;99.90;;;;;;4408126;32;20080;-64
2024/01/17 05:57:46;;;;;;;0.50;0.50;;;-3.40;99.90;;;;;;4407777;32;20085;-64
2024/01/17 06:00:13;;;;;;;0.40;0.40;;;-3.40;99.90;;;;;;4407545;32;20077;-63
2024/01/17 06:02:40;;;;;;;0.43;0.43;;;-3.40;99.90;;;;;;4393569;32;20513;-62
2024/01/17 06:05:07;;;;;;;0.57;0.57;;;-3.50;99.90;;;;;;4407585;32;20069;-66
2024/01/17 06:07:33;;;;;;;0.90;0.90;;;-3.40;99.90;;;;;;4398245;32;20081;-62
2024/01/17 06:09:58;;;;;;;0.62;0.62;;;-3.40;99.90;;;;;;4408210;32;20061;-64
2024/01/17 06:12:24;;;;;;;0.45;0.45;;;-3.40;99.90;;;;;;4403036;32;20936;-64
2024/01/17 06:14:50;;;;;;;0.88;0.70;;;-3.50;99.90;;;;;;4399503;32;20186;-68
2024/01/17 06:17:15;;;;;;;0.40;0.40;;;-3.60;99.90;;;;;;4405693;32;20605;-62
2024/01/17 06:19:41;;;;;;;0.40;0.40;;;-3.60;99.90;;;;;;4405522;32;20066;-64
2024/01/17 06:22:10;;;;;;;0.40;0.40;;;-3.60;99.90;;;;;;4393681;32;20108;-64
2024/01/17 06:24:36;;;;;;;8.88;2.05;;;-3.60;99.90;;;;;;4402121;32;20128;-66
2024/01/17 06:27:02;;;;;;;0.50;0.50;;;-3.50;99.90;;;;;;4384736;32;20073;-63
2024/01/17 06:29:30;;;;;;;0.65;0.65;;;-3.50;99.90;;;;;;4405489;32;20109;-62
2024/01/17 06:31:56;;;;;;;0.70;0.70;;;-3.50;99.90;;;;;;4405593;32;20568;-66
2024/01/17 06:34:23;;;;;;;0.52;0.52;;;-3.60;99.90;;;;;;4400509;32;20065;-68
2024/01/17 06:36:49;;;;;;;1.67;1.58;;;-3.70;99.90;;;;;;4403881;32;20085;-66
2024/01/17 06:39:17;;;;;;;0.40;0.40;;;-3.70;99.90;;;;;;4407328;32;20434;-66
2024/01/17 06:41:43;;;;;;;0.50;0.50;;;-3.60;99.90;;;;;;4402991;32;20085;-68
2024/01/17 06:44:09;;;;;;;0.40;0.40;;;-3.60;99.90;;;;;;4404773;32;20113;-68
2024/01/17 06:46:35;;;;;;;0.50;0.50;;;-3.70;99.90;;;;;;4407094;32;20092;-68
2024/01/17 06:49:01;;;;;;;0.60;0.60;;;-3.80;99.90;;;;;;4406159;32;20171;-66
2024/01/17 06:51:26;;;;;;;0.40;0.40;;;-3.80;99.90;;;;;;4401038;32;20089;-67
2024/01/17 06:53:52;;;;;;;0.62;0.62;;;-3.80;99.90;;;;;;4397131;32;20097;-68
2024/01/17 06:56:17;;;;;;;0.50;0.50;;;-3.70;99.90;;;;;;4391388;32;20163;-65
2024/01/17 06:58:43;;;;;;;4.85;1.77;;;-3.80;99.90;;;;;;4392447;32;20086;-67
2024/01/17 07:01:09;;;;;;;0.40;0.40;;;-3.80;99.90;;;;;;4385309;32;20123;-64
2024/01/17 07:03:35;;;;;;;0.47;0.47;;;-3.70;99.90;;;;;;4383205;32;21222;-66
2024/01/17 07:06:01;;;;;;;0.43;0.43;;;-3.70;99.90;;;;;;4378800;32;20180;-67
2024/01/17 07:08:27;;;;;;;4.20;0.70;;;-3.80;99.90;;;;;;4380408;32;20140;-65
2024/01/17 07:10:53;;;;;;;0.50;0.50;;;-3.70;99.90;;;;;;4365962;32;20682;-66
2024/01/17 07:13:18;;;;;;;0.40;0.40;;;-3.70;99.90;;;;;;4376225;32;21056;-68
2024/01/17 07:15:44;;;;;;;0.40;0.40;;;-3.80;99.90;;;;;;4373657;32;20159;-66
2024/01/17 07:18:10;;;;;;;0.40;0.40;;;-3.70;99.90;;;;;;4379648;32;21166;-66
2024/01/17 07:20:36;;;;;;;0.50;0.50;;;-3.80;99.90;;;;;;4369922;32;20147;-66
2024/01/17 07:23:02;;;;;;;0.70;0.70;;;-3.80;99.90;;;;;;4385801;32;20540;-67
2024/01/17 07:25:27;;;;;;;0.62;0.62;;;-3.90;99.90;;;;;;4377759;32;20125;-67
2024/01/17 07:27:54;;;;;;;0.45;0.45;;;-3.80;99.90;;;;;;4373369;32;20110;-65
2024/01/17 07:30:20;;;;;;;0.50;0.50;;;-3.80;99.90;;;;;;4380290;32;20442;-67
2024/01/17 07:32:46;;;;;;;2.47;2.25;;;-3.80;99.90;;;;;;4378187;32;20143;-67
2024/01/17 07:35:11;;;;;;;1.00;0.95;;;-3.70;99.90;;;;;;4372719;32;21535;-68
2024/01/17 07:37:37;;;;;;;0.55;0.55;;;-3.80;99.90;;;;;;4379654;32;20667;-66
2024/01/17 07:40:04;;;;;;;1.08;0.80;;;-3.80;99.90;;;;;;4382676;32;20090;-65
2024/01/17 07:42:30;;;;;;;0.50;0.50;;;-3.70;99.90;;;;;;4384172;32;20117;-67
2024/01/17 07:44:55;;;;;;;0.40;0.40;;;-3.60;99.90;;;;;;4387955;32;20794;-66
2024/01/17 07:47:23;;;;;;;0.70;0.70;;;-3.70;99.90;;;;;;4376784;32;20178;-63
2024/01/17 07:49:48;;;;;;;0.73;0.73;;;-3.70;99.90;;;;;;4378000;32;20114;-63
2024/01/17 07:52:15;;;;;;;0.52;0.52;;;-3.70;99.90;;;;;;4378875;32;20078;-64
2024/01/17 07:54:40;;;;;;;0.50;0.50;;;-3.60;99.90;;;;;;4371904;32;22126;-64
2024/01/17 07:57:06;;;;;;;1.58;1.48;;;-3.60;99.90;;;;;;4358796;32;20093;-64
2024/01/17 07:59:31;;;;;;;0.47;0.47;;;-3.50;99.90;;;;;;4380958;32;20659;-64
2024/01/17 08:01:57;;;;;;;0.40;0.40;;;-3.60;99.90;;;;;;4372899;32;20597;-66
2024/01/17 08:04:23;;;;;;;0.50;0.50;;;-3.50;99.90;;;;;;4382230;32;20139;-63
2024/01/17 08:06:50;;;;;;;0.57;0.57;;;-3.50;99.90;;;;;;4389012;32;20159;-63
2024/01/17 08:09:26;;;;;;;0.50;0.50;;;-3.40;99.90;;;;;;4384838;32;20104;-65
2024/01/17 08:11:53;;;;;;;0.50;0.50;;;-3.40;99.90;;;;;;4372458;32;21136;-65
2024/01/17 08:14:19;;;;;;;0.60;0.60;;;-3.40;99.90;;;;;;4362879;32;20159;-63
2024/01/17 08:16:46;;;;;;;0.50;0.50;;;-3.20;99.90;;;;;;4370022;32;20101;-64
2024/01/17 08:19:12;;;;;;;1.55;1.02;;;-3.30;99.90;;;;;;4373460;32;20089;-67
2024/01/17 08:21:37;;;;;;;1.17;0.70;;;-3.10;99.90;;;;;;4387998;32;20151;-65
2024/01/17 08:24:03;;;;;;;0.43;0.43;;;-3.00;99.90;;;;;;4387014;32;20093;-65
2024/01/17 08:26:30;;;;;;;0.50;0.50;;;-2.90;99.90;;;;;;4377617;32;20082;-66
2024/01/17 08:28:56;;;;;;;1.02;1.02;;;-2.90;99.90;;;;;;4382619;32;20592;-65
2024/01/17 08:31:22;;;;;;;0.30;0.30;;;-2.90;99.90;;;;;;4374723;32;20440;-66
2024/01/17 08:33:49;;;;;;;1.15;1.15;;;-2.70;99.90;;;;;;4369248;32;21011;-66
2024/01/17 08:36:14;;;;;;;0.50;0.50;;;-2.60;99.90;;;;;;4384778;32;20105;-65
2024/01/17 08:38:40;;;;;;;0.40;0.40;;;-2.60;99.90;;;;;;4391683;32;20434;-65
2024/01/17 08:41:06;;;;;;;0.40;0.40;;;-2.50;99.90;;;;;;4383526;32;20109;-65
2024/01/17 08:43:32;;;;;;;0.40;0.40;;;-2.50;99.90;;;;;;4388160;32;20100;-65
2024/01/17 08:45:59;;;;;;;0.40;0.40;;;-2.50;99.90;;;;;;4400579;32;20086;-66
2024/01/17 08:48:24;;;;;;;0.40;0.40;;;-2.50;99.90;;;;;;4386008;32;20112;-69
2024/01/17 08:50:50;;;;;;;3.70;1.95;;;-2.40;99.90;;;;;;4373775;32;20148;-66
2024/01/17 08:53:16;;;;;;;4.47;1.67;;;-2.40;99.90;;;;;;4384380;32;20168;-66
2024/01/17 08:55:41;;;;;;;0.47;0.47;;;-2.50;99.90;;;;;;4390532;32;20785;-66
2024/01/17 08:58:07;;;;;;;0.50;0.50;;;-2.40;99.90;;;;;;4372913;32;20580;-67
2024/01/17 09:00:33;;;;;;;0.40;0.40;;;-2.30;99.90;;;;;;4382241;32;20694;-67
2024/01/17 09:02:58;;;;;;;0.65;0.65;;;-2.30;99.90;;;;;;4390327;32;20183;-67
2024/01/17 09:05:24;;;;;;;0.40;0.40;;;-2.20;99.90;;;;;;4396864;32;20118;-66
2024/01/17 09:07:50;;;;;;;0.40;0.40;;;-2.30;99.90;;;;;;4395154;32;21077;-66
2024/01/17 09:10:17;;;;;;;0.60;0.60;;;-2.40;99.90;;;;;;4384372;32;20471;-66
2024/01/17 09:12:44;;;;;;;0.50;0.50;;;-2.30;99.90;;;;;;4386507;32;20101;-66
2024/01/17 09:15:10;;;;;;;1.27;1.17;;;-2.30;99.90;;;;;;4401304;32;20085;-66
2024/01/17 09:17:36;;;;;;;0.85;0.85;;;-2.40;99.90;;;;;;4399933;32;20128;-64
2024/01/17 09:20:03;;;;;;;0.75;0.75;;;-2.40;99.90;;;;;;4399653;32;20085;-65
2024/01/17 09:22:29;;;;;;;0.50;0.50;;;-2.30;99.90;;;;;;4390329;32;20914;-67
2024/01/17 09:24:54;;;;;;;0.50;0.50;;;-2.30;99.90;;;;;;4391840;32;20073;-65
2024/01/17 09:27:20;;;;;;;0.55;0.55;;;-2.20;99.90;;;;;;4389040;32;20144;-64
2024/01/17 09:29:45;;;;;;;0.40;0.40;;;-2.10;99.90;;;;;;4386896;32;21604;-65
2024/01/17 09:32:12;;;;;;;4.57;2.35;;;-2.10;99.90;;;;;;4390625;32;20081;-65
2024/01/17 09:34:38;;;;;;;0.68;0.68;;;-2.10;99.90;;;;;;4393313;32;20695;-65
2024/01/17 09:37:05;;;;;;;1.02;1.02;;;-2.10;99.90;;;;;;4393678;32;20077;-65
2024/01/17 09:39:30;;;;;;;0.50;0.50;;;-2.00;99.90;;;;;;4386869;32;20438;-65
2024/01/17 09:41:59;;;;;;;0.50;0.50;;;-1.90;99.90;;;;;;4388355;32;20187;-65
2024/01/17 09:44:25;;;;;;;0.50;0.50;;;-1.80;99.90;;;;;;4384326;32;20621;-65
2024/01/17 09:46:51;;;;;;;0.40;0.40;;;-1.70;99.90;;;;;;4387352;32;20105;-65
2024/01/17 09:49:17;;;;;;;0.50;0.50;;;-1.70;99.90;;;;;;4383012;32;20222;-65
2024/01/17 09:51:42;;;;;;;0.60;0.60;;;-1.80;99.90;;;;;;4382460;32;20081;-65
2024/01/17 09:54:09;;;;;;;0.65;0.65;;;-1.70;99.90;;;;;;4375969;32;20097;-65
2024/01/17 09:56:37;;;;;;;0.45;0.45;;;-1.60;99.90;;;;;;4375318;32;20101;-64
2024/01/17 09:59:14;;;;;;;0.55;0.55;;;-1.60;99.90;;;;;;4365530;32;20106;-65
2024/01/17 10:01:40;;;;;;;0.40;0.40;;;-1.40;99.90;;;;;;4381423;32;20555;-65
2024/01/17 10:04:06;;;;;;;0.55;0.55;;;-1.20;99.90;;;;;;4383794;32;20550;-65
2024/01/17 10:06:32;;;;;;;0.50;0.50;;;-1.20;99.90;;;;;;4374048;32;20110;-66
2024/01/17 10:08:59;;;;;;;0.50;0.50;;;-1.20;99.90;;;;;;4379635;32;20656;-66
2024/01/17 10:11:25;;;;;;;0.40;0.40;;;-1.10;99.90;;;;;;4379128;32;20167;-65
2024/01/17 10:13:50;;;;;;;0.50;0.50;;;-1.10;99.90;;;;;;4387206;32;20428;-66
2024/01/17 10:16:16;;;;;;;0.85;0.85;;;-1.10;99.90;;;;;;4382004;32;20086;-66
2024/01/17 10:18:41;;;;;;;1.37;1.27;;;-1.00;99.90;;;;;;4390084;32;20109;-67
2024/01/17 10:21:07;;;;;;;0.88;0.88;;;-1.00;99.90;;;;;;4386270;32;20669;-64
2024/01/17 10:23:33;;;;;;;0.50;0.50;;;-0.90;99.90;;;;;;4389190;32;20084;-65
2024/01/17 10:25:59;;;;;;;0.88;0.88;;;-0.90;99.90;;;;;;4384130;32;20074;-65
2024/01/17 10:28:24;;;;;;;0.62;0.62;;;-0.90;99.90;;;;;;4380137;32;20124;-66
2024/01/17 10:30:50;;;;;;;0.50;0.50;;;-0.90;99.90;;;;;;4386561;32;20116;-65
2024/01/17 10:33:16;;;;;;;0.40;0.40;;;-0.80;99.90;;;;;;4387655;32;20445;-65
2024/01/17 10:35:42;;;;;;;0.50;0.50;;;-0.80;99.90;;;;;;4395023;32;20093;-65
2024/01/17 10:38:08;;;;;;;0.50;0.50;;;-0.80;99.90;;;;;;4384078;32;20552;-65
2024/01/17 10:40:34;;;;;;;0.40;0.40;;;-0.60;99.90;;;;;;4387211;32;20544;-65
2024/01/17 10:43:09;;;;;;;0.85;0.85;;;-0.60;99.90;;;;;;4386803;32;20140;-65
2024/01/17 10:45:35;;;;;;;0.40;0.40;;;-0.60;99.90;;;;;;4378768;32;20102;-66
2024/01/17 10:48:01;;;;;;;0.60;0.60;;;-0.40;99.90;;;;;;4384791;32;20606;-66
2024/01/17 10:50:27;;;;;;;0.40;0.40;;;-0.20;99.90;;;;;;4385632;32;20231;-66
2024/01/17 10:53:00;;;;;;;0.77;0.77;;;0.00;99.90;;;;;;4385066;32;20097;-66
2024/01/17 10:55:28;;;;;;;2.80;2.10;;;-0.10;99.90;;;;;;4389282;32;20136;-66
2024/01/17 10:57:59;;;;;;;0.70;0.70;;;0.00;99.90;;;;;;4377269;32;20474;-66
2024/01/17 11:00:31;;;;;;;0.40;0.40;;;0.00;99.90;;;;;;4389590;32;20248;-65
2024/01/17 11:02:59;;;;;;;0.50;0.50;;;0.20;99.90;;;;;;4381297;32;20142;-66
2024/01/17 11:05:30;;;;;;;1.20;0.98;;;0.20;99.90;;;;;;4388113;32;20573;-66
2024/01/17 11:07:58;;;;;;;0.50;0.50;;;0.50;99.90;;;;;;4389366;32;20080;-66
2024/01/17 11:10:25;;;;;;;0.60;0.60;;;0.60;99.90;;;;;;4390637;32;20106;-64
2024/01/17 11:12:51;;;;;;;0.85;0.85;;;0.50;99.90;;;;;;4392503;32;20119;-66
2024/01/17 11:15:18;;;;;;;0.60;0.60;;;0.30;99.90;;;;;;4384190;32;20814;-65
2024/01/17 11:17:45;;;;;;;0.50;0.50;;;0.50;99.90;;;;;;4385274;32;20082;-66
2024/01/17 11:20:12;;;;;;;0.65;0.65;;;0.40;99.90;;;;;;4391351;32;20104;-68
2024/01/17 11:22:39;;;;;;;0.98;0.95;;;0.50;99.90;;;;;;4396066;32;20081;-65
2024/01/17 11:25:17;;;;;;;1.05;1.05;;;0.60;99.90;;;;;;4384984;32;20679;-65
2024/01/17 11:28:01;;;;;;;0.47;0.47;;;0.60;99.90;;;;;;4382935;32;20105;-66
2024/01/17 11:30:41;;;;;;;1.08;1.05;;;0.70;99.90;;;;;;4399478;32;20073;-66
2024/01/17 11:33:10;;;;;;;0.60;0.60;;;0.90;99.90;;;;;;4398388;32;20291;-67
2024/01/17 11:35:45;;;;;;;0.85;0.85;;;0.90;99.90;;;;;;4392209;32;20152;-64
2024/01/17 11:38:31;;;;;;;0.60;0.60;;;1.00;99.90;;;;;;4394004;32;20094;-65
2024/01/17 11:41:01;;;;;;;0.50;0.50;;;0.90;99.90;;;;;;4386672;32;20089;-66
2024/01/17 11:43:33;;;;;;;2.20;1.85;;;0.80;99.90;;;;;;4397008;32;20081;-65
2024/01/17 11:46:00;;;;;;;0.73;0.73;;;0.90;99.90;;;;;;4395133;32;20106;-66
2024/01/17 11:48:27;;;;;;;0.50;0.50;;;1.00;99.90;;;;;;4398386;32;20081;-66
2024/01/17 11:51:00;;;;;;;0.50;0.50;;;1.00;99.90;;;;;;4392787;32;83695;-66
2024/01/17 11:53:27;;;;;;;0.50;0.50;;;1.10;99.90;;;;;;4392848;32;20089;-67
2024/01/17 11:55:55;;;;;;;2.47;0.93;;;1.00;99.90;;;;;;4380252;32;20549;-67
2024/01/17 11:58:22;;;;;;;0.40;0.40;;;1.10;99.90;;;;;;4376964;32;20143;-66
2024/01/17 12:00:52;;;;;;;1.25;0.77;;;1.10;99.90;;;;;;4377443;32;21076;-65
2024/01/17 12:03:33;;;;;;;0.47;0.47;;;1.30;99.90;;;;;;4372836;32;20086;-65
2024/01/17 12:06:00;;;;;;;0.30;0.30;;;1.20;99.90;;;;;;4371463;32;20566;-66
2024/01/17 12:08:27;;;;;;;7.72;1.55;;;1.40;99.90;;;;;;4378998;32;20094;-67
2024/01/17 12:10:54;;;;;;;0.40;0.40;;;1.40;99.90;;;;;;4386558;32;20110;-63
2024/01/17 12:13:23;;;;;;;0.37;0.37;;;1.50;99.90;;;;;;4392300;32;20111;-67
2024/01/17 12:15:53;;;;;;;0.43;0.43;;;1.20;99.90;;;;;;4381569;32;20101;-67
2024/01/17 12:18:22;;;;;;;0.60;0.60;;;1.10;99.90;;;;;;4384087;32;20077;-65
2024/01/17 12:20:49;;;;;;;0.40;0.40;;;1.10;99.90;;;;;;4378901;32;20144;-66
2024/01/17 12:23:16;;;;;;;1.80;1.65;;;1.10;99.90;;;;;;4372966;32;20619;-65
2024/01/17 12:25:42;;;;;;;0.30;0.30;;;1.10;99.90;;;;;;4374467;32;20077;-64
2024/01/17 12:28:09;;;;;;;0.50;0.50;;;1.20;99.90;;;;;;4369381;32;20113;-66
2024/01/17 12:30:35;;;;;;;0.50;0.50;;;1.20;99.90;;;;;;4377717;32;20099;-66
2024/01/17 12:33:00;;;;;;;0.40;0.40;;;1.10;99.90;;;;;;4378570;32;20537;-66
2024/01/17 12:35:26;;;;;;;0.90;0.90;;;1.10;99.90;;;;;;4374106;32;20093;-66
2024/01/17 12:37:52;;;;;;;4.32;1.73;;;1.20;99.90;;;;;;4381182;32;20105;-67
2024/01/17 12:40:17;;;;;;;0.82;0.70;;;1.20;99.90;;;;;;4386021;32;20564;-65
2024/01/17 12:42:47;;;;;;;3.92;1.92;;;1.30;99.90;;;;;;4380343;32;20113;-65
2024/01/17 12:45:13;;;;;;;0.50;0.50;;;1.30;99.90;;;;;;4375942;32;20667;-67
2024/01/17 12:47:39;;;;;;;0.30;0.30;;;1.20;99.90;;;;;;4384566;32;20441;-66